createdAt,value
2019-02-15T00:01:03.472Z,3.40
2019-02-15T00:02:35.744Z,3.30
2019-02-15T00:04:08.055Z,3.30
2019-02-15T00:05:40.224Z,3.30
2019-02-15T00:07:12.369Z,3.30
2019-02-15T00:08:44.529Z,3.30
2019-02-15T00:10:16.792Z,3.30
2019-02-15T00:11:48.941Z,3.30
2019-02-15T00:13:21.179Z,3.30
2019-02-15T00:14:53.296Z,3.30
2019-02-15T00:16:25.572Z,3.30
2019-02-15T00:18:20.113Z,3.30
2019-02-15T00:19:53.513Z,3.30
2019-02-15T00:21:28.493Z,3.20
2019-02-15T00:23:00.775Z,3.20
2019-02-15T00:24:33.024Z,3.20
2019-02-15T00:26:05.262Z,3.10
2019-02-15T00:27:37.476Z,3.10
2019-02-15T00:29:09.703Z,3.00
2019-02-15T00:30:42.666Z,3.00
2019-02-15T00:32:15.014Z,3.00
2019-02-15T00:33:47.319Z,3.00
2019-02-15T00:35:19.472Z,3.00
2019-02-15T00:36:51.732Z,3.00
2019-02-15T00:38:23.984Z,3.00
2019-02-15T00:39:56.257Z,2.90
2019-02-15T00:41:28.588Z,2.90
2019-02-15T00:43:00.856Z,2.90
2019-02-15T00:44:33.126Z,2.80
2019-02-15T00:46:28.206Z,2.90
2019-02-15T00:48:04.189Z,2.80
2019-02-15T00:49:43.044Z,2.80
2019-02-15T00:51:23.456Z,2.90
2019-02-15T00:53:15.198Z,2.90
2019-02-15T00:55:07.245Z,2.80
2019-02-15T00:56:55.033Z,2.90
2019-02-15T00:58:55.338Z,2.90
2019-02-15T01:00:50.258Z,2.90
2019-02-15T01:02:28.723Z,2.80
2019-02-15T01:04:26.226Z,2.90
2019-02-15T01:06:07.667Z,2.90
2019-02-15T01:07:56.175Z,2.90
2019-02-15T01:09:41.576Z,2.90
2019-02-15T01:11:33.399Z,2.90
2019-02-15T01:13:17.473Z,2.90
2019-02-15T01:14:49.718Z,2.90
2019-02-15T01:16:22.000Z,2.80
2019-02-15T01:17:54.123Z,2.80
2019-02-15T01:19:26.261Z,2.80
2019-02-15T01:20:58.473Z,2.80
2019-02-15T01:22:30.658Z,2.70
2019-02-15T01:24:02.848Z,2.70
2019-02-15T01:25:41.704Z,2.70
2019-02-15T01:27:25.523Z,2.70
2019-02-15T01:29:15.616Z,2.60
2019-02-15T01:31:12.921Z,2.60
2019-02-15T01:32:53.978Z,2.50
2019-02-15T01:35:00.588Z,2.60
2019-02-15T01:36:38.575Z,2.50
2019-02-15T01:38:20.163Z,2.50
2019-02-15T01:40:05.994Z,2.50
2019-02-15T01:42:06.613Z,2.50
2019-02-15T01:43:50.369Z,2.50
2019-02-15T01:45:32.184Z,2.50
2019-02-15T01:47:11.340Z,2.50
2019-02-15T01:48:43.623Z,2.40
2019-02-15T01:50:15.866Z,2.40
2019-02-15T01:51:48.100Z,2.50
2019-02-15T01:53:20.319Z,2.40
2019-02-15T01:54:52.574Z,2.50
2019-02-15T01:56:24.814Z,2.40
2019-02-15T01:57:57.054Z,2.50
2019-02-15T01:59:29.183Z,2.40
2019-02-15T02:01:01.406Z,2.40
2019-02-15T02:02:33.615Z,2.40
2019-02-15T02:04:05.887Z,2.40
2019-02-15T02:05:38.152Z,2.40
2019-02-15T02:07:10.395Z,2.40
2019-02-15T02:08:42.641Z,2.40
2019-02-15T02:10:14.901Z,2.40
2019-02-15T02:11:47.183Z,2.40
2019-02-15T02:13:19.456Z,2.40
2019-02-15T02:14:51.735Z,2.40
2019-02-15T02:16:23.899Z,2.40
2019-02-15T02:17:56.169Z,2.40
2019-02-15T02:19:28.416Z,2.50
2019-02-15T02:21:00.626Z,2.40
2019-02-15T02:22:32.993Z,2.40
2019-02-15T02:24:05.081Z,2.40
2019-02-15T02:25:37.269Z,2.40
2019-02-15T02:27:09.520Z,2.50
2019-02-15T02:28:41.748Z,2.40
2019-02-15T02:30:13.981Z,2.40
2019-02-15T02:31:46.238Z,2.40
2019-02-15T02:33:18.373Z,2.40
2019-02-15T02:34:50.497Z,2.40
2019-02-15T02:36:47.580Z,2.40
2019-02-15T02:38:19.849Z,2.40
2019-02-15T02:39:52.109Z,2.40
2019-02-15T02:41:24.378Z,2.40
2019-02-15T02:42:56.650Z,2.40
2019-02-15T02:44:28.779Z,2.30
2019-02-15T02:46:00.903Z,2.30
2019-02-15T02:47:33.020Z,2.30
2019-02-15T02:49:05.244Z,2.30
2019-02-15T02:50:37.567Z,2.30
2019-02-15T02:52:09.831Z,2.20
2019-02-15T02:53:42.101Z,2.20
2019-02-15T02:55:14.350Z,2.20
2019-02-15T02:56:46.501Z,2.20
2019-02-15T02:58:18.783Z,2.20
2019-02-15T02:59:51.050Z,2.20
2019-02-15T03:01:23.367Z,2.20
2019-02-15T03:02:55.488Z,2.20
2019-02-15T03:04:27.622Z,2.10
2019-02-15T03:05:59.781Z,2.10
2019-02-15T03:07:32.095Z,2.10
2019-02-15T03:09:07.166Z,2.10
2019-02-15T03:10:39.437Z,2.00
2019-02-15T03:12:11.657Z,2.00
2019-02-15T03:13:43.900Z,2.00
2019-02-15T03:15:16.169Z,2.00
2019-02-15T03:16:48.481Z,1.90
2019-02-15T03:18:20.750Z,1.90
2019-02-15T03:19:53.038Z,1.90
2019-02-15T03:21:25.296Z,1.90
2019-02-15T03:22:57.463Z,2.00
2019-02-15T03:24:29.704Z,1.80
2019-02-15T03:26:01.825Z,1.80
2019-02-15T03:27:34.057Z,1.80
2019-02-15T03:29:06.290Z,1.80
2019-02-15T03:30:38.502Z,1.80
2019-02-15T03:32:10.833Z,1.80
2019-02-15T03:33:43.141Z,1.80
2019-02-15T03:35:15.375Z,1.80
2019-02-15T03:37:09.663Z,1.80
2019-02-15T03:38:49.911Z,1.70
2019-02-15T03:40:35.643Z,1.70
2019-02-15T03:42:09.050Z,1.70
2019-02-15T03:43:41.134Z,1.70
2019-02-15T03:45:15.244Z,1.80
2019-02-15T03:46:47.512Z,1.80
2019-02-15T03:48:19.736Z,1.80
2019-02-15T03:49:52.007Z,1.80
2019-02-15T03:51:24.286Z,1.80
2019-02-15T03:52:56.495Z,1.80
2019-02-15T03:54:28.751Z,1.80
2019-02-15T03:56:00.953Z,1.80
2019-02-15T03:57:33.142Z,1.90
2019-02-15T03:59:05.606Z,1.90
2019-02-15T04:00:38.005Z,1.80
2019-02-15T04:02:10.156Z,1.90
2019-02-15T04:03:42.294Z,1.90
2019-02-15T04:05:14.573Z,1.90
2019-02-15T04:06:46.813Z,1.90
2019-02-15T04:08:19.044Z,1.90
2019-02-15T04:09:51.293Z,1.90
2019-02-15T04:11:23.578Z,1.90
2019-02-15T04:12:55.761Z,1.90
2019-02-15T04:14:32.881Z,1.90
2019-02-15T04:16:02.127Z,1.90
2019-02-15T04:17:34.471Z,1.90
2019-02-15T04:19:06.743Z,1.80
2019-02-15T04:20:38.983Z,1.90
2019-02-15T04:22:11.179Z,1.90
2019-02-15T04:23:43.268Z,1.90
2019-02-15T04:25:15.386Z,1.90
2019-02-15T04:26:47.547Z,1.90
2019-02-15T04:28:19.832Z,1.90
2019-02-15T04:29:52.054Z,1.80
2019-02-15T04:31:24.308Z,1.80
2019-02-15T04:32:56.467Z,1.90
2019-02-15T04:34:28.702Z,1.80
2019-02-15T04:36:00.952Z,1.80
2019-02-15T04:37:33.209Z,1.80
2019-02-15T04:39:05.387Z,1.90
2019-02-15T04:40:37.588Z,1.90
2019-02-15T04:42:09.809Z,1.90
2019-02-15T04:43:41.881Z,1.90
2019-02-15T04:45:14.146Z,1.80
2019-02-15T04:46:46.408Z,1.90
2019-02-15T04:48:18.543Z,1.80
2019-02-15T04:49:50.654Z,1.80
2019-02-15T04:51:22.909Z,1.80
2019-02-15T04:52:55.179Z,1.80
2019-02-15T04:54:27.310Z,1.80
2019-02-15T04:55:59.548Z,1.80
2019-02-15T04:57:31.847Z,1.80
2019-02-15T04:59:03.964Z,1.80
2019-02-15T05:00:36.251Z,1.80
2019-02-15T05:02:08.402Z,1.80
2019-02-15T05:03:40.612Z,1.80
2019-02-15T05:05:12.747Z,1.80
2019-02-15T05:06:44.991Z,1.80
2019-02-15T05:08:17.246Z,1.80
2019-02-15T05:09:49.508Z,1.80
2019-02-15T05:11:21.586Z,1.80
2019-02-15T05:12:53.734Z,1.90
2019-02-15T05:14:25.997Z,1.90
2019-02-15T05:15:58.112Z,1.90
2019-02-15T05:17:30.366Z,2.00
2019-02-15T05:19:02.631Z,1.90
2019-02-15T05:20:34.876Z,1.90
2019-02-15T05:22:07.041Z,1.90
2019-02-15T05:23:39.274Z,1.90
2019-02-15T05:25:11.344Z,1.90
2019-02-15T05:26:43.494Z,1.90
2019-02-15T05:28:15.579Z,1.90
2019-02-15T05:29:49.093Z,1.90
2019-02-15T05:31:21.362Z,2.00
2019-02-15T05:32:53.463Z,2.00
2019-02-15T05:34:25.872Z,2.00
2019-02-15T05:35:58.135Z,2.00
2019-02-15T05:37:30.352Z,2.00
2019-02-15T05:39:04.199Z,2.00
2019-02-15T05:40:36.447Z,2.00
2019-02-15T05:42:08.706Z,2.00
2019-02-15T05:43:40.998Z,2.00
2019-02-15T05:45:13.094Z,2.10
2019-02-15T05:46:45.251Z,2.10
2019-02-15T05:48:17.641Z,2.10
2019-02-15T05:49:49.937Z,2.10
2019-02-15T05:51:22.182Z,2.10
2019-02-15T05:52:54.408Z,2.10
2019-02-15T05:54:26.686Z,2.10
2019-02-15T05:55:58.830Z,2.10
2019-02-15T05:57:31.023Z,2.10
2019-02-15T05:59:03.290Z,2.10
2019-02-15T06:00:37.228Z,2.10
2019-02-15T06:02:09.808Z,2.10
2019-02-15T06:03:42.228Z,2.10
2019-02-15T06:05:14.498Z,2.10
2019-02-15T06:06:46.662Z,2.10
2019-02-15T06:08:18.940Z,2.10
2019-02-15T06:09:51.216Z,2.10
2019-02-15T06:11:23.475Z,2.10
2019-02-15T06:12:55.717Z,2.00
2019-02-15T06:14:27.833Z,2.00
2019-02-15T06:16:00.118Z,2.00
2019-02-15T06:17:32.258Z,2.10
2019-02-15T06:19:04.471Z,2.00
2019-02-15T06:20:36.544Z,2.00
2019-02-15T06:22:10.587Z,2.00
2019-02-15T06:23:43.045Z,2.00
2019-02-15T06:25:15.300Z,2.00
2019-02-15T06:26:47.491Z,2.00
2019-02-15T06:28:19.780Z,2.00
2019-02-15T06:29:52.029Z,2.00
2019-02-15T06:31:24.169Z,2.00
2019-02-15T06:32:56.414Z,2.00
2019-02-15T06:34:28.710Z,1.90
2019-02-15T06:36:00.955Z,1.90
2019-02-15T06:37:33.248Z,1.90
2019-02-15T06:39:07.049Z,1.90
2019-02-15T06:40:39.490Z,1.90
2019-02-15T06:42:12.194Z,2.00
2019-02-15T06:43:44.917Z,1.90
2019-02-15T06:45:24.411Z,1.90
2019-02-15T06:46:51.345Z,1.90
2019-02-15T06:48:23.809Z,2.10
2019-02-15T06:49:56.592Z,2.00
2019-02-15T06:51:31.457Z,2.30
2019-02-15T06:53:03.842Z,2.80
2019-02-15T06:54:36.286Z,3.40
2019-02-15T06:56:08.792Z,3.70
2019-02-15T06:57:41.239Z,4.30
2019-02-15T06:59:36.068Z,4.60
2019-02-15T07:01:26.894Z,5.00
2019-02-15T07:03:06.975Z,5.30
2019-02-15T07:04:56.890Z,5.50
2019-02-15T07:06:29.179Z,5.60
2019-02-15T07:08:09.827Z,5.80
2019-02-15T07:09:42.085Z,6.00
2019-02-15T07:11:14.410Z,6.20
2019-02-15T07:12:46.786Z,6.40
2019-02-15T07:14:20.840Z,6.50
2019-02-15T07:15:53.199Z,6.20
2019-02-15T07:17:25.324Z,5.90
2019-02-15T07:18:57.616Z,5.60
2019-02-15T07:20:29.741Z,5.30
2019-02-15T07:22:02.019Z,5.00
2019-02-15T07:23:34.354Z,4.70
2019-02-15T07:25:08.353Z,4.50
2019-02-15T07:26:40.598Z,4.30
2019-02-15T07:28:13.000Z,4.10
2019-02-15T07:29:45.157Z,4.00
2019-02-15T07:31:17.274Z,3.90
2019-02-15T07:32:49.633Z,3.80
2019-02-15T07:34:21.851Z,3.80
2019-02-15T07:35:53.990Z,3.70
2019-02-15T07:37:26.129Z,3.60
2019-02-15T07:38:58.412Z,3.50
2019-02-15T07:40:31.263Z,3.50
2019-02-15T07:42:03.751Z,3.50
2019-02-15T07:43:35.965Z,3.40
2019-02-15T07:45:08.530Z,3.40
2019-02-15T07:46:40.762Z,3.30
2019-02-15T07:48:12.996Z,3.30
2019-02-15T07:49:45.248Z,3.20
2019-02-15T07:51:17.441Z,3.20
2019-02-15T07:52:49.633Z,3.20
2019-02-15T07:54:21.884Z,3.10
2019-02-15T07:55:54.108Z,3.10
2019-02-15T07:57:26.240Z,3.10
2019-02-15T07:58:58.469Z,3.10
2019-02-15T08:00:30.717Z,3.10
2019-02-15T08:02:02.996Z,3.10
2019-02-15T08:03:35.100Z,3.10
2019-02-15T08:05:07.530Z,3.10
2019-02-15T08:06:39.823Z,3.10
2019-02-15T08:08:12.241Z,3.30
2019-02-15T08:09:44.378Z,3.50
2019-02-15T08:11:16.622Z,3.70
2019-02-15T08:12:48.899Z,3.90
2019-02-15T08:14:21.226Z,4.20
2019-02-15T08:15:53.497Z,4.40
2019-02-15T08:17:25.841Z,4.70
2019-02-15T08:18:57.938Z,4.90
2019-02-15T08:20:30.189Z,5.20
2019-02-15T08:22:02.663Z,5.40
2019-02-15T08:23:34.957Z,5.40
2019-02-15T08:25:07.430Z,5.50
2019-02-15T08:26:39.697Z,5.40
2019-02-15T08:28:11.970Z,5.50
2019-02-15T08:29:44.207Z,5.50
2019-02-15T08:31:16.371Z,5.60
2019-02-15T08:32:48.657Z,5.60
2019-02-15T08:34:20.728Z,5.60
2019-02-15T08:35:52.942Z,5.60
2019-02-15T08:37:25.097Z,5.60
2019-02-15T08:38:57.189Z,5.60
2019-02-15T08:40:29.452Z,5.60
2019-02-15T08:42:04.447Z,5.60
2019-02-15T08:43:35.878Z,5.60
2019-02-15T08:45:09.758Z,5.50
2019-02-15T08:46:43.113Z,5.50
2019-02-15T08:48:15.422Z,5.40
2019-02-15T08:49:47.696Z,5.40
2019-02-15T08:51:19.981Z,5.40
2019-02-15T08:52:52.254Z,5.30
2019-02-15T08:54:24.424Z,5.30
2019-02-15T08:55:56.652Z,5.30
2019-02-15T08:57:28.927Z,5.30
2019-02-15T08:59:02.064Z,5.30
2019-02-15T09:00:34.452Z,5.30
2019-02-15T09:02:17.173Z,5.30
2019-02-15T09:03:49.300Z,5.30
2019-02-15T09:05:21.687Z,5.30
2019-02-15T09:06:53.968Z,5.20
2019-02-15T09:08:26.399Z,5.20
2019-02-15T09:09:58.676Z,5.20
2019-02-15T09:11:30.884Z,5.20
2019-02-15T09:13:03.131Z,5.20
2019-02-15T09:14:35.256Z,5.20
2019-02-15T09:16:10.379Z,5.20
2019-02-15T09:17:41.576Z,5.20
2019-02-15T09:19:13.821Z,5.20
2019-02-15T09:20:46.117Z,5.20
2019-02-15T09:22:18.347Z,5.40
2019-02-15T09:23:50.559Z,5.30
2019-02-15T09:25:22.784Z,5.30
2019-02-15T09:26:55.480Z,5.30
2019-02-15T09:28:56.320Z,5.30
2019-02-15T09:30:28.650Z,5.40
2019-02-15T09:32:00.727Z,5.40
2019-02-15T09:33:33.005Z,5.40
2019-02-15T09:35:06.014Z,5.40
2019-02-15T09:36:38.121Z,5.50
2019-02-15T09:38:10.370Z,5.50
2019-02-15T09:39:42.523Z,5.60
2019-02-15T09:41:14.897Z,5.70
2019-02-15T09:42:47.154Z,5.80
2019-02-15T09:44:19.316Z,5.80
2019-02-15T09:45:51.614Z,5.90
2019-02-15T09:47:23.680Z,6.00
2019-02-15T09:48:55.836Z,6.10
2019-02-15T09:50:28.121Z,6.20
2019-02-15T09:52:00.436Z,6.30
2019-02-15T09:53:32.750Z,6.30
2019-02-15T09:55:05.021Z,6.30
2019-02-15T09:56:37.272Z,6.40
2019-02-15T09:58:09.362Z,6.40
2019-02-15T09:59:41.748Z,6.40
2019-02-15T10:01:14.193Z,6.40
2019-02-15T10:02:46.598Z,6.50
2019-02-15T10:04:19.101Z,6.60
2019-02-15T10:05:51.432Z,6.70
2019-02-15T10:07:23.660Z,6.80
2019-02-15T10:08:56.054Z,7.10
2019-02-15T10:10:28.199Z,7.20
2019-02-15T10:12:00.435Z,7.50
2019-02-15T10:13:32.660Z,7.70
2019-02-15T10:15:04.848Z,7.90
2019-02-15T10:16:37.159Z,8.10
2019-02-15T10:18:09.386Z,8.30
2019-02-15T10:19:41.651Z,8.50
2019-02-15T10:21:14.013Z,8.70
2019-02-15T10:22:46.098Z,8.80
2019-02-15T10:24:18.204Z,9.00
2019-02-15T10:25:50.299Z,9.20
2019-02-15T10:27:22.683Z,9.40
2019-02-15T10:28:54.977Z,9.50
2019-02-15T10:30:27.081Z,9.70
2019-02-15T10:31:59.375Z,9.80
2019-02-15T10:33:31.497Z,10.00
2019-02-15T10:35:04.645Z,10.20
2019-02-15T10:36:36.719Z,10.30
2019-02-15T10:38:08.873Z,10.40
2019-02-15T10:39:40.943Z,10.50
2019-02-15T10:41:13.092Z,10.70
2019-02-15T10:42:45.223Z,10.80
2019-02-15T10:44:17.385Z,11.00
2019-02-15T10:45:49.525Z,11.10
2019-02-15T10:47:25.125Z,11.20
2019-02-15T10:48:55.705Z,11.30
2019-02-15T10:50:28.205Z,11.40
2019-02-15T10:52:00.638Z,11.50
2019-02-15T10:53:32.905Z,11.60
2019-02-15T10:55:05.894Z,11.70
2019-02-15T10:56:38.027Z,11.80
2019-02-15T10:58:10.252Z,11.90
2019-02-15T10:59:42.505Z,11.90
2019-02-15T11:01:14.650Z,12.00
2019-02-15T11:02:46.897Z,12.10
2019-02-15T11:04:19.161Z,12.10
2019-02-15T11:05:51.457Z,12.20
2019-02-15T11:07:23.720Z,12.30
2019-02-15T11:08:55.986Z,12.40
2019-02-15T11:10:28.239Z,12.50
2019-02-15T11:12:00.526Z,12.50
2019-02-15T11:13:32.811Z,12.60
2019-02-15T11:15:05.743Z,12.60
2019-02-15T11:16:46.779Z,12.70
2019-02-15T11:18:12.138Z,12.70
2019-02-15T11:19:44.444Z,12.80
2019-02-15T11:21:16.704Z,12.90
2019-02-15T11:22:49.075Z,13.00
2019-02-15T11:24:21.319Z,13.00
2019-02-15T11:25:53.494Z,13.10
2019-02-15T11:27:25.651Z,13.10
2019-02-15T11:28:58.975Z,13.20
2019-02-15T11:30:31.206Z,13.30
2019-02-15T11:32:03.725Z,13.30
2019-02-15T11:33:35.962Z,13.40
2019-02-15T11:35:09.475Z,13.40
2019-02-15T11:36:41.884Z,13.50
2019-02-15T11:38:14.250Z,13.50
2019-02-15T11:39:46.540Z,13.60
2019-02-15T11:41:18.922Z,13.60
2019-02-15T11:42:51.206Z,13.70
2019-02-15T11:44:23.284Z,13.70
2019-02-15T11:45:55.558Z,13.80
2019-02-15T11:47:27.805Z,13.80
2019-02-15T11:48:59.889Z,13.90
2019-02-15T11:50:32.128Z,13.90
2019-02-15T11:52:04.405Z,14.00
2019-02-15T11:53:36.683Z,14.00
2019-02-15T11:55:09.171Z,14.10
2019-02-15T11:56:41.423Z,14.10
2019-02-15T11:58:13.577Z,14.10
2019-02-15T11:59:46.015Z,14.20
2019-02-15T12:01:18.317Z,14.30
2019-02-15T12:02:50.552Z,14.30
2019-02-15T12:04:22.847Z,14.40
2019-02-15T12:05:55.097Z,14.40
2019-02-15T12:07:27.446Z,14.40
2019-02-15T12:08:59.598Z,14.40
2019-02-15T12:10:31.940Z,14.50
2019-02-15T12:12:10.375Z,14.50
2019-02-15T12:13:38.527Z,14.50
2019-02-15T12:15:10.668Z,14.60
2019-02-15T12:16:42.767Z,14.60
2019-02-15T12:18:15.028Z,14.60
2019-02-15T12:19:47.310Z,14.60
2019-02-15T12:21:19.600Z,14.60
2019-02-15T12:22:52.015Z,14.60
2019-02-15T12:24:24.352Z,14.60
2019-02-15T12:25:56.609Z,14.70
2019-02-15T12:27:28.969Z,14.70
2019-02-15T12:29:01.334Z,14.70
2019-02-15T12:30:33.667Z,14.70
2019-02-15T12:32:05.997Z,14.80
2019-02-15T12:33:38.226Z,14.80
2019-02-15T12:35:10.454Z,14.80
2019-02-15T12:36:42.737Z,14.80
2019-02-15T12:40:14.429Z,14.80
2019-02-15T12:41:46.706Z,14.80
2019-02-15T12:43:20.775Z,14.80
2019-02-15T12:44:53.036Z,14.90
2019-02-15T12:46:25.351Z,14.90
2019-02-15T12:47:57.730Z,15.00
2019-02-15T12:49:29.972Z,15.00
2019-02-15T12:51:02.095Z,15.00
2019-02-15T12:52:34.445Z,15.10
2019-02-15T12:54:06.800Z,15.10
2019-02-15T12:55:38.917Z,15.10
2019-02-15T12:57:11.199Z,15.10
2019-02-15T12:58:43.334Z,15.00
2019-02-15T13:00:15.613Z,15.10
2019-02-15T13:01:48.117Z,15.10
2019-02-15T13:03:20.642Z,15.10
2019-02-15T13:04:52.992Z,15.10
2019-02-15T13:06:28.677Z,15.10
2019-02-15T13:07:59.489Z,15.10
2019-02-15T13:09:31.601Z,15.20
2019-02-15T13:11:03.987Z,15.10
2019-02-15T13:12:36.360Z,15.10
2019-02-15T13:14:08.705Z,15.10
2019-02-15T13:15:41.002Z,15.10
2019-02-15T13:17:13.334Z,15.00
2019-02-15T13:18:45.595Z,15.00
2019-02-15T13:20:17.831Z,14.90
2019-02-15T13:21:50.074Z,14.90
2019-02-15T13:23:22.362Z,14.80
2019-02-15T13:24:54.761Z,14.80
2019-02-15T13:26:26.953Z,14.70
2019-02-15T13:28:02.113Z,14.60
2019-02-15T13:29:34.392Z,14.60
2019-02-15T13:31:06.616Z,14.50
2019-02-15T13:32:38.789Z,14.40
2019-02-15T13:34:10.883Z,14.40
2019-02-15T13:35:43.133Z,14.30
2019-02-15T13:37:15.492Z,14.30
2019-02-15T13:38:47.732Z,14.20
2019-02-15T13:40:19.890Z,14.20
2019-02-15T13:41:52.239Z,14.20
2019-02-15T13:43:24.696Z,14.10
2019-02-15T13:44:56.924Z,14.10
2019-02-15T13:46:29.163Z,14.00
2019-02-15T13:48:01.335Z,13.90
2019-02-15T13:49:33.469Z,13.80
2019-02-15T13:51:05.773Z,13.80
2019-02-15T13:52:38.136Z,13.70
2019-02-15T13:54:10.404Z,13.60
2019-02-15T13:55:42.657Z,13.50
2019-02-15T13:57:14.821Z,13.40
2019-02-15T13:58:46.966Z,13.40
2019-02-15T14:00:19.333Z,13.30
2019-02-15T14:01:51.422Z,13.30
2019-02-15T14:03:23.546Z,13.30
2019-02-15T14:04:55.689Z,13.20
2019-02-15T14:06:28.048Z,13.20
2019-02-15T14:08:00.159Z,13.20
2019-02-15T14:09:32.460Z,13.10
2019-02-15T14:11:04.572Z,13.10
2019-02-15T14:12:36.905Z,13.00
2019-02-15T14:14:09.119Z,13.00
2019-02-15T14:15:41.292Z,13.00
2019-02-15T14:17:13.453Z,12.90
2019-02-15T14:18:45.754Z,12.90
2019-02-15T14:20:17.983Z,12.90
2019-02-15T14:21:50.266Z,12.90
2019-02-15T14:23:22.553Z,12.80
2019-02-15T14:24:54.825Z,12.80
2019-02-15T14:26:27.047Z,12.80
2019-02-15T14:27:59.265Z,12.80
2019-02-15T14:29:31.524Z,12.80
2019-02-15T14:31:03.766Z,12.70
2019-02-15T14:32:35.916Z,12.70
2019-02-15T14:34:08.039Z,12.70
2019-02-15T14:35:40.315Z,12.70
2019-02-15T14:37:12.609Z,12.70
2019-02-15T14:38:44.867Z,12.60
2019-02-15T14:40:17.125Z,12.60
2019-02-15T14:41:49.218Z,12.60
2019-02-15T14:43:21.516Z,12.60
2019-02-15T14:44:53.774Z,12.60
2019-02-15T14:46:25.893Z,12.50
2019-02-15T14:47:58.072Z,12.50
2019-02-15T14:49:30.291Z,12.50
2019-02-15T14:51:02.583Z,12.50
2019-02-15T14:52:34.853Z,12.50
2019-02-15T14:54:07.019Z,12.50
2019-02-15T14:55:39.195Z,12.50
2019-02-15T14:57:11.510Z,12.50
2019-02-15T14:58:43.750Z,12.50
2019-02-15T15:00:16.035Z,12.40
2019-02-15T15:01:48.507Z,12.50
2019-02-15T15:03:20.854Z,12.50
2019-02-15T15:04:56.140Z,12.40
2019-02-15T15:06:28.455Z,12.40
2019-02-15T15:08:00.723Z,12.50
2019-02-15T15:09:34.584Z,12.50
2019-02-15T15:11:09.070Z,12.50
2019-02-15T15:12:41.611Z,12.40
2019-02-15T15:14:14.030Z,12.50
2019-02-15T15:15:46.396Z,12.50
2019-02-15T15:17:18.808Z,12.50
2019-02-15T15:18:51.110Z,12.50
2019-02-15T15:20:23.417Z,12.50
2019-02-15T15:21:55.948Z,12.40
2019-02-15T15:23:28.205Z,12.40
2019-02-15T15:25:00.570Z,12.40
2019-02-15T15:26:32.710Z,12.40
2019-02-15T15:28:05.029Z,12.40
2019-02-15T15:29:38.543Z,12.40
2019-02-15T15:31:11.308Z,12.40
2019-02-15T15:32:43.800Z,12.40
2019-02-15T15:34:16.212Z,12.40
2019-02-15T15:35:48.652Z,12.40
2019-02-15T15:37:21.042Z,12.40
2019-02-15T15:38:53.352Z,12.30
2019-02-15T15:40:25.724Z,12.30
2019-02-15T15:41:58.151Z,12.30
2019-02-15T15:43:30.358Z,12.30
2019-02-15T15:45:02.631Z,12.30
2019-02-15T15:46:34.958Z,12.30
2019-02-15T15:48:07.217Z,12.30
2019-02-15T15:49:39.444Z,12.30
2019-02-15T15:51:11.613Z,12.30
2019-02-15T15:52:43.898Z,12.30
2019-02-15T15:54:16.091Z,12.30
2019-02-15T15:55:48.413Z,12.20
2019-02-15T15:57:20.763Z,12.20
2019-02-15T15:58:53.054Z,12.20
2019-02-15T16:00:25.245Z,12.20
2019-02-15T16:01:57.361Z,12.20
2019-02-15T16:03:29.479Z,12.10
2019-02-15T16:05:01.761Z,12.10
2019-02-15T16:06:34.170Z,12.20
2019-02-15T16:08:06.452Z,12.10
2019-02-15T16:09:38.790Z,12.10
2019-02-15T16:11:11.113Z,12.10
2019-02-15T16:12:43.431Z,12.00
2019-02-15T16:14:15.748Z,12.00
2019-02-15T16:15:48.097Z,12.00
2019-02-15T16:17:22.239Z,11.90
2019-02-15T16:18:54.479Z,11.90
2019-02-15T16:20:26.749Z,11.90
2019-02-15T16:21:58.910Z,11.90
2019-02-15T16:23:30.988Z,11.90
2019-02-15T16:25:03.393Z,11.80
2019-02-15T16:26:35.762Z,11.80
2019-02-15T16:28:08.109Z,11.70
2019-02-15T16:29:40.381Z,11.70
2019-02-15T16:31:12.749Z,11.60
2019-02-15T16:32:45.015Z,11.60
2019-02-15T16:34:17.932Z,11.60
2019-02-15T16:35:50.179Z,11.60
2019-02-15T16:37:22.426Z,11.50
2019-02-15T16:38:54.711Z,11.50
2019-02-15T16:40:26.886Z,11.40
2019-02-15T16:41:59.114Z,11.40
2019-02-15T16:43:31.459Z,11.40
2019-02-15T16:45:04.522Z,11.40
2019-02-15T16:46:37.033Z,11.30
2019-02-15T16:48:09.347Z,11.30
2019-02-15T16:49:41.587Z,11.30
2019-02-15T16:51:13.700Z,11.30
2019-02-15T16:52:45.820Z,11.20
2019-02-15T16:54:18.107Z,11.20
2019-02-15T16:55:50.294Z,11.20
2019-02-15T16:57:22.547Z,11.10
2019-02-15T16:58:54.791Z,11.10
2019-02-15T17:00:27.016Z,11.10
2019-02-15T17:01:59.109Z,11.10
2019-02-15T17:03:31.288Z,11.00
2019-02-15T17:05:03.673Z,11.00
2019-02-15T17:06:35.974Z,11.00
2019-02-15T17:08:08.269Z,11.00
2019-02-15T17:09:40.573Z,10.90
2019-02-15T17:11:12.888Z,10.90
2019-02-15T17:12:45.165Z,10.90
2019-02-15T17:14:17.423Z,10.80
2019-02-15T17:15:49.677Z,10.80
2019-02-15T17:17:21.949Z,10.80
2019-02-15T17:18:54.209Z,10.80
2019-02-15T17:20:26.332Z,10.70
2019-02-15T17:21:58.682Z,10.70
2019-02-15T17:23:30.817Z,10.70
2019-02-15T17:25:03.094Z,10.70
2019-02-15T17:26:35.378Z,10.70
2019-02-15T17:28:07.608Z,10.70
2019-02-15T17:29:39.747Z,10.60
2019-02-15T17:31:12.000Z,10.60
2019-02-15T17:32:44.283Z,10.60
2019-02-15T17:34:16.420Z,10.50
2019-02-15T17:35:48.810Z,10.50
2019-02-15T17:37:20.997Z,10.50
2019-02-15T17:38:53.455Z,10.50
2019-02-15T17:40:25.726Z,10.50
2019-02-15T17:41:59.238Z,10.50
2019-02-15T17:43:31.498Z,10.50
2019-02-15T17:45:07.464Z,10.50
2019-02-15T17:46:39.994Z,10.40
2019-02-15T17:48:12.126Z,10.40
2019-02-15T17:49:44.238Z,10.40
2019-02-15T17:51:16.562Z,10.40
2019-02-15T17:52:48.786Z,10.40
2019-02-15T17:54:20.897Z,10.40
2019-02-15T17:55:53.297Z,10.40
2019-02-15T17:57:25.376Z,10.30
2019-02-15T17:58:57.642Z,10.30
2019-02-15T18:00:31.153Z,10.30
2019-02-15T18:02:03.909Z,10.30
2019-02-15T18:03:36.135Z,10.30
2019-02-15T18:05:15.534Z,10.30
2019-02-15T18:06:47.833Z,10.20
2019-02-15T18:08:20.062Z,10.20
2019-02-15T18:09:52.396Z,10.20
2019-02-15T18:11:24.736Z,10.20
2019-02-15T18:12:56.957Z,10.20
2019-02-15T18:14:29.416Z,10.20
2019-02-15T18:16:01.646Z,10.20
2019-02-15T18:17:33.966Z,10.10
2019-02-15T18:19:10.096Z,10.20
2019-02-15T18:20:40.389Z,10.10
2019-02-15T18:22:12.526Z,10.10
2019-02-15T18:23:44.779Z,10.10
2019-02-15T18:25:17.064Z,10.10
2019-02-15T18:26:49.347Z,10.00
2019-02-15T18:28:21.618Z,10.00
2019-02-15T18:29:59.696Z,10.00
2019-02-15T18:31:31.987Z,10.00
2019-02-15T18:33:04.180Z,9.90
2019-02-15T18:34:36.656Z,9.90
2019-02-15T18:36:08.888Z,9.90
2019-02-15T18:37:40.992Z,9.80
2019-02-15T18:39:13.318Z,9.80
2019-02-15T18:40:45.670Z,9.80
2019-02-15T18:42:17.921Z,9.80
2019-02-15T18:43:50.185Z,9.70
2019-02-15T18:45:22.520Z,9.70
2019-02-15T18:46:54.755Z,9.70
2019-02-15T18:48:26.978Z,9.70
2019-02-15T18:49:59.467Z,9.60
2019-02-15T18:51:31.717Z,9.60
2019-02-15T18:53:03.826Z,9.60
2019-02-15T18:54:37.352Z,9.50
2019-02-15T18:56:09.708Z,9.50
2019-02-15T18:57:41.910Z,9.60
2019-02-15T18:59:14.133Z,9.50
2019-02-15T19:00:46.497Z,9.50
2019-02-15T19:02:18.883Z,9.50
2019-02-15T19:03:51.310Z,9.50
2019-02-15T19:05:23.753Z,9.50
2019-02-15T19:06:56.059Z,9.50
2019-02-15T19:08:28.166Z,9.40
2019-02-15T19:10:09.386Z,9.40
2019-02-15T19:11:44.405Z,9.50
2019-02-15T19:13:19.549Z,9.50
2019-02-15T19:14:52.025Z,9.40
2019-02-15T19:16:26.621Z,9.40
2019-02-15T19:17:58.853Z,9.30
2019-02-15T19:19:31.022Z,9.30
2019-02-15T19:21:03.361Z,9.30
2019-02-15T19:22:35.769Z,9.30
2019-02-15T19:24:09.888Z,9.30
2019-02-15T19:25:41.996Z,9.30
2019-02-15T19:27:16.371Z,9.20
2019-02-15T19:28:48.629Z,9.20
2019-02-15T19:30:26.405Z,9.20
2019-02-15T19:31:58.590Z,9.20
2019-02-15T19:33:30.922Z,9.20
2019-02-15T19:35:03.562Z,9.20
2019-02-15T19:36:36.011Z,9.20
2019-02-15T19:38:08.142Z,9.10
2019-02-15T19:39:40.263Z,9.10
2019-02-15T19:41:12.560Z,9.10
2019-02-15T19:42:46.317Z,9.10
2019-02-15T19:44:18.463Z,9.10
2019-02-15T19:45:52.367Z,9.00
2019-02-15T19:47:24.445Z,9.00
2019-02-15T19:48:56.598Z,9.00
2019-02-15T19:50:28.770Z,9.00
2019-02-15T19:52:01.088Z,9.00
2019-02-15T19:53:33.458Z,9.00
2019-02-15T19:55:06.530Z,8.90
2019-02-15T19:56:38.780Z,8.90
2019-02-15T19:58:11.186Z,8.90
2019-02-15T19:59:53.179Z,8.90
2019-02-15T20:01:17.709Z,8.80
2019-02-15T20:02:49.925Z,8.90
2019-02-15T20:04:22.258Z,8.80
2019-02-15T20:05:54.478Z,8.80
2019-02-15T20:07:26.766Z,8.80
2019-02-15T20:08:58.935Z,8.80
2019-02-15T20:10:31.248Z,8.70
2019-02-15T20:12:03.555Z,8.80
2019-02-15T20:13:35.977Z,8.70
2019-02-15T20:15:09.875Z,8.70
2019-02-15T20:16:42.019Z,8.70
2019-02-15T20:18:14.327Z,8.70
2019-02-15T20:19:48.590Z,8.70
2019-02-15T20:21:20.813Z,8.60
2019-02-15T20:22:53.096Z,8.60
2019-02-15T20:24:25.370Z,8.60
2019-02-15T20:25:57.557Z,8.60
2019-02-15T20:27:29.900Z,8.50